sensor_id;sensor_type;location;lat;lon;timestamp;P1;durP1;ratioP1;P2;durP2;ratioP2
13897;SDS011;7019;50.766;4.474;2023-12-20T00:00:23;7.43;;;2.13;;
13897;SDS011;7019;50.766;4.474;2023-12-20T00:02:50;8.20;;;2.20;;
13897;SDS011;7019;50.766;4.474;2023-12-20T00:05:19;6.77;;;2.37;;
13897;SDS011;7019;50.766;4.474;2023-12-20T00:07:46;7.83;;;2.63;;
13897;SDS011;7019;50.766;4.474;2023-12-20T00:10:13;12.07;;;2.00;;
13897;SDS011;7019;50.766;4.474;2023-12-20T00:12:40;16.27;;;2.50;;
13897;SDS011;7019;50.766;4.474;2023-12-20T00:15:07;8.50;;;1.77;;
13897;SDS011;7019;50.766;4.474;2023-12-20T00:17:34;7.77;;;1.50;;
13897;SDS011;7019;50.766;4.474;2023-12-20T00:20:02;8.87;;;2.10;;
13897;SDS011;7019;50.766;4.474;2023-12-20T00:22:32;7.27;;;2.23;;
13897;SDS011;7019;50.766;4.474;2023-12-20T00:24:59;11.67;;;1.80;;
13897;SDS011;7019;50.766;4.474;2023-12-20T00:27:26;11.37;;;1.90;;
13897;SDS011;7019;50.766;4.474;2023-12-20T00:29:53;6.63;;;1.80;;
13897;SDS011;7019;50.766;4.474;2023-12-20T00:32:20;9.93;;;2.60;;
13897;SDS011;7019;50.766;4.474;2023-12-20T00:34:47;16.37;;;2.03;;
13897;SDS011;7019;50.766;4.474;2023-12-20T00:37:15;10.33;;;2.57;;
13897;SDS011;7019;50.766;4.474;2023-12-20T00:39:43;12.53;;;2.00;;
13897;SDS011;7019;50.766;4.474;2023-12-20T00:42:10;13.37;;;2.00;;
13897;SDS011;7019;50.766;4.474;2023-12-20T00:44:38;13.30;;;2.13;;
13897;SDS011;7019;50.766;4.474;2023-12-20T00:47:05;11.83;;;3.03;;
13897;SDS011;7019;50.766;4.474;2023-12-20T00:49:32;15.70;;;2.37;;
13897;SDS011;7019;50.766;4.474;2023-12-20T00:51:59;9.73;;;2.20;;
13897;SDS011;7019;50.766;4.474;2023-12-20T00:54:26;23.43;;;2.60;;
13897;SDS011;7019;50.766;4.474;2023-12-20T00:56:55;7.37;;;2.17;;
13897;SDS011;7019;50.766;4.474;2023-12-20T00:59:22;13.10;;;2.07;;
13897;SDS011;7019;50.766;4.474;2023-12-20T01:01:49;10.30;;;2.00;;
13897;SDS011;7019;50.766;4.474;2023-12-20T01:04:16;11.80;;;1.90;;
13897;SDS011;7019;50.766;4.474;2023-12-20T01:06:43;8.93;;;2.10;;
13897;SDS011;7019;50.766;4.474;2023-12-20T01:09:10;9.03;;;2.80;;
13897;SDS011;7019;50.766;4.474;2023-12-20T01:11:37;7.97;;;2.60;;
13897;SDS011;7019;50.766;4.474;2023-12-20T01:14:06;9.17;;;2.50;;
13897;SDS011;7019;50.766;4.474;2023-12-20T01:16:32;4.03;;;1.90;;
13897;SDS011;7019;50.766;4.474;2023-12-20T01:18:59;10.27;;;2.50;;
13897;SDS011;7019;50.766;4.474;2023-12-20T01:21:26;10.77;;;2.30;;
13897;SDS011;7019;50.766;4.474;2023-12-20T01:23:53;15.73;;;2.63;;
13897;SDS011;7019;50.766;4.474;2023-12-20T01:26:20;15.87;;;2.37;;
13897;SDS011;7019;50.766;4.474;2023-12-20T01:28:47;12.20;;;2.37;;
13897;SDS011;7019;50.766;4.474;2023-12-20T01:31:15;9.67;;;2.50;;
13897;SDS011;7019;50.766;4.474;2023-12-20T01:33:43;9.37;;;2.90;;
13897;SDS011;7019;50.766;4.474;2023-12-20T01:36:10;13.73;;;3.40;;
13897;SDS011;7019;50.766;4.474;2023-12-20T01:38:37;17.63;;;3.40;;
13897;SDS011;7019;50.766;4.474;2023-12-20T01:41:04;18.17;;;3.40;;
13897;SDS011;7019;50.766;4.474;2023-12-20T01:43:31;9.77;;;3.03;;
13897;SDS011;7019;50.766;4.474;2023-12-20T01:45:58;13.20;;;3.33;;
13897;SDS011;7019;50.766;4.474;2023-12-20T01:48:27;13.57;;;3.03;;
13897;SDS011;7019;50.766;4.474;2023-12-20T01:50:57;13.23;;;3.17;;
13897;SDS011;7019;50.766;4.474;2023-12-20T01:53:25;10.93;;;3.07;;
13897;SDS011;7019;50.766;4.474;2023-12-20T01:55:54;15.37;;;4.10;;
13897;SDS011;7019;50.766;4.474;2023-12-20T01:58:22;14.03;;;3.60;;
13897;SDS011;7019;50.766;4.474;2023-12-20T02:00:50;15.27;;;3.27;;
13897;SDS011;7019;50.766;4.474;2023-12-20T02:03:17;17.03;;;3.87;;
13897;SDS011;7019;50.766;4.474;2023-12-20T02:05:46;15.67;;;3.00;;
13897;SDS011;7019;50.766;4.474;2023-12-20T02:08:14;16.30;;;3.57;;
13897;SDS011;7019;50.766;4.474;2023-12-20T02:10:41;17.63;;;3.90;;
13897;SDS011;7019;50.766;4.474;2023-12-20T02:13:08;20.53;;;3.60;;
13897;SDS011;7019;50.766;4.474;2023-12-20T02:15:35;19.47;;;3.77;;
13897;SDS011;7019;50.766;4.474;2023-12-20T02:20:30;8.30;;;3.17;;
13897;SDS011;7019;50.766;4.474;2023-12-20T02:22:59;20.57;;;4.33;;
13897;SDS011;7019;50.766;4.474;2023-12-20T02:25:27;13.43;;;3.87;;
13897;SDS011;7019;50.766;4.474;2023-12-20T02:27:54;14.47;;;3.17;;
13897;SDS011;7019;50.766;4.474;2023-12-20T02:30:21;16.33;;;3.57;;
13897;SDS011;7019;50.766;4.474;2023-12-20T02:32:49;17.23;;;3.90;;
13897;SDS011;7019;50.766;4.474;2023-12-20T02:35:16;16.17;;;3.13;;
13897;SDS011;7019;50.766;4.474;2023-12-20T02:37:43;22.63;;;4.60;;
13897;SDS011;7019;50.766;4.474;2023-12-20T02:40:12;15.30;;;3.50;;
13897;SDS011;7019;50.766;4.474;2023-12-20T02:42:39;14.77;;;2.90;;
13897;SDS011;7019;50.766;4.474;2023-12-20T02:45:06;17.17;;;4.20;;
13897;SDS011;7019;50.766;4.474;2023-12-20T02:47:34;14.60;;;3.47;;
13897;SDS011;7019;50.766;4.474;2023-12-20T02:50:01;11.30;;;3.43;;
13897;SDS011;7019;50.766;4.474;2023-12-20T02:52:28;16.17;;;4.37;;
13897;SDS011;7019;50.766;4.474;2023-12-20T02:54:56;16.47;;;4.07;;
13897;SDS011;7019;50.766;4.474;2023-12-20T02:57:24;11.07;;;3.77;;
13897;SDS011;7019;50.766;4.474;2023-12-20T02:59:51;23.37;;;5.20;;
13897;SDS011;7019;50.766;4.474;2023-12-20T03:02:18;19.73;;;4.50;;
13897;SDS011;7019;50.766;4.474;2023-12-20T03:04:45;19.00;;;3.90;;
13897;SDS011;7019;50.766;4.474;2023-12-20T03:07:12;20.73;;;5.13;;
13897;SDS011;7019;50.766;4.474;2023-12-20T03:09:39;19.13;;;5.07;;
13897;SDS011;7019;50.766;4.474;2023-12-20T03:12:06;16.27;;;4.37;;
13897;SDS011;7019;50.766;4.474;2023-12-20T03:14:35;22.40;;;5.50;;
13897;SDS011;7019;50.766;4.474;2023-12-20T03:17:02;19.23;;;6.07;;
13897;SDS011;7019;50.766;4.474;2023-12-20T03:19:29;23.97;;;5.80;;
13897;SDS011;7019;50.766;4.474;2023-12-20T03:21:56;20.23;;;6.93;;
13897;SDS011;7019;50.766;4.474;2023-12-20T03:24:26;17.93;;;6.07;;
13897;SDS011;7019;50.766;4.474;2023-12-20T03:26:53;17.50;;;6.00;;
13897;SDS011;7019;50.766;4.474;2023-12-20T03:29:20;26.80;;;6.70;;
13897;SDS011;7019;50.766;4.474;2023-12-20T03:31:48;20.83;;;5.90;;
13897;SDS011;7019;50.766;4.474;2023-12-20T03:34:15;25.73;;;6.57;;
13897;SDS011;7019;50.766;4.474;2023-12-20T03:36:42;20.13;;;6.17;;
13897;SDS011;7019;50.766;4.474;2023-12-20T03:39:09;19.73;;;5.83;;
13897;SDS011;7019;50.766;4.474;2023-12-20T03:41:36;25.20;;;7.63;;
13897;SDS011;7019;50.766;4.474;2023-12-20T03:44:03;22.13;;;5.43;;
13897;SDS011;7019;50.766;4.474;2023-12-20T03:46:30;18.73;;;5.23;;
13897;SDS011;7019;50.766;4.474;2023-12-20T03:48:59;21.23;;;5.33;;
13897;SDS011;7019;50.766;4.474;2023-12-20T03:51:26;19.03;;;6.23;;
13897;SDS011;7019;50.766;4.474;2023-12-20T03:53:53;24.37;;;5.83;;
13897;SDS011;7019;50.766;4.474;2023-12-20T03:56:20;15.37;;;5.13;;
13897;SDS011;7019;50.766;4.474;2023-12-20T03:58:47;16.03;;;4.97;;
13897;SDS011;7019;50.766;4.474;2023-12-20T04:01:14;12.13;;;5.50;;
13897;SDS011;7019;50.766;4.474;2023-12-20T04:03:41;17.57;;;5.70;;
13897;SDS011;7019;50.766;4.474;2023-12-20T04:06:09;18.37;;;5.83;;
13897;SDS011;7019;50.766;4.474;2023-12-20T04:08:42;20.40;;;4.90;;
13897;SDS011;7019;50.766;4.474;2023-12-20T04:11:09;10.83;;;4.60;;
13897;SDS011;7019;50.766;4.474;2023-12-20T04:13:36;20.70;;;5.40;;
13897;SDS011;7019;50.766;4.474;2023-12-20T04:16:03;15.77;;;4.63;;
13897;SDS011;7019;50.766;4.474;2023-12-20T04:18:30;24.40;;;5.30;;
13897;SDS011;7019;50.766;4.474;2023-12-20T04:20:58;18.03;;;5.00;;
13897;SDS011;7019;50.766;4.474;2023-12-20T04:23:26;11.37;;;4.17;;
13897;SDS011;7019;50.766;4.474;2023-12-20T04:25:54;15.67;;;4.60;;
13897;SDS011;7019;50.766;4.474;2023-12-20T04:28:21;22.40;;;5.30;;
13897;SDS011;7019;50.766;4.474;2023-12-20T04:30:48;16.40;;;5.50;;
13897;SDS011;7019;50.766;4.474;2023-12-20T04:33:16;18.80;;;4.57;;
13897;SDS011;7019;50.766;4.474;2023-12-20T04:35:43;13.00;;;4.43;;
13897;SDS011;7019;50.766;4.474;2023-12-20T04:38:11;17.13;;;4.00;;
13897;SDS011;7019;50.766;4.474;2023-12-20T04:40:39;13.93;;;4.27;;
13897;SDS011;7019;50.766;4.474;2023-12-20T04:43:06;16.77;;;4.33;;
13897;SDS011;7019;50.766;4.474;2023-12-20T04:45:33;14.07;;;5.03;;
13897;SDS011;7019;50.766;4.474;2023-12-20T04:48:01;14.43;;;4.47;;
13897;SDS011;7019;50.766;4.474;2023-12-20T04:50:29;14.53;;;4.20;;
13897;SDS011;7019;50.766;4.474;2023-12-20T04:52:56;15.77;;;4.07;;
13897;SDS011;7019;50.766;4.474;2023-12-20T04:55:23;16.67;;;4.50;;
13897;SDS011;7019;50.766;4.474;2023-12-20T04:57:51;11.50;;;4.97;;
13897;SDS011;7019;50.766;4.474;2023-12-20T05:00:20;15.43;;;4.77;;
13897;SDS011;7019;50.766;4.474;2023-12-20T05:02:47;16.80;;;4.70;;
13897;SDS011;7019;50.766;4.474;2023-12-20T05:05:14;18.40;;;6.30;;
13897;SDS011;7019;50.766;4.474;2023-12-20T05:07:43;12.97;;;4.37;;
13897;SDS011;7019;50.766;4.474;2023-12-20T05:10:10;14.40;;;4.03;;
13897;SDS011;7019;50.766;4.474;2023-12-20T05:12:37;13.40;;;4.83;;
13897;SDS011;7019;50.766;4.474;2023-12-20T05:15:06;16.77;;;4.37;;
13897;SDS011;7019;50.766;4.474;2023-12-20T05:17:34;22.00;;;4.57;;
13897;SDS011;7019;50.766;4.474;2023-12-20T05:20:01;17.13;;;4.73;;
13897;SDS011;7019;50.766;4.474;2023-12-20T05:22:28;22.17;;;5.17;;
13897;SDS011;7019;50.766;4.474;2023-12-20T05:24:55;19.20;;;4.47;;
13897;SDS011;7019;50.766;4.474;2023-12-20T05:27:22;18.87;;;4.67;;
13897;SDS011;7019;50.766;4.474;2023-12-20T05:29:49;13.37;;;3.77;;
13897;SDS011;7019;50.766;4.474;2023-12-20T05:32:18;9.03;;;3.97;;
13897;SDS011;7019;50.766;4.474;2023-12-20T05:34:45;18.80;;;4.30;;
13897;SDS011;7019;50.766;4.474;2023-12-20T05:37:12;19.30;;;5.20;;
13897;SDS011;7019;50.766;4.474;2023-12-20T05:39:39;12.83;;;3.47;;
13897;SDS011;7019;50.766;4.474;2023-12-20T05:42:06;14.13;;;4.00;;
13897;SDS011;7019;50.766;4.474;2023-12-20T05:44:33;15.67;;;4.73;;
13897;SDS011;7019;50.766;4.474;2023-12-20T05:47:00;20.07;;;4.33;;
13897;SDS011;7019;50.766;4.474;2023-12-20T05:49:29;18.83;;;4.70;;
13897;SDS011;7019;50.766;4.474;2023-12-20T05:51:56;17.17;;;3.93;;
13897;SDS011;7019;50.766;4.474;2023-12-20T05:54:23;16.97;;;4.67;;
13897;SDS011;7019;50.766;4.474;2023-12-20T05:56:50;19.90;;;4.07;;
13897;SDS011;7019;50.766;4.474;2023-12-20T05:59:17;12.63;;;4.00;;
13897;SDS011;7019;50.766;4.474;2023-12-20T06:01:44;12.80;;;3.97;;
13897;SDS011;7019;50.766;4.474;2023-12-20T06:04:11;13.60;;;4.87;;
13897;SDS011;7019;50.766;4.474;2023-12-20T06:06:41;18.70;;;4.90;;
13897;SDS011;7019;50.766;4.474;2023-12-20T06:09:09;13.50;;;4.87;;
13897;SDS011;7019;50.766;4.474;2023-12-20T06:11:36;15.93;;;4.57;;
13897;SDS011;7019;50.766;4.474;2023-12-20T06:14:03;11.43;;;3.70;;
13897;SDS011;7019;50.766;4.474;2023-12-20T06:16:30;15.10;;;3.70;;
13897;SDS011;7019;50.766;4.474;2023-12-20T06:18:57;16.17;;;4.00;;
13897;SDS011;7019;50.766;4.474;2023-12-20T06:21:24;14.40;;;3.97;;
13897;SDS011;7019;50.766;4.474;2023-12-20T06:23:52;14.03;;;3.70;;
13897;SDS011;7019;50.766;4.474;2023-12-20T06:26:20;12.37;;;2.83;;
13897;SDS011;7019;50.766;4.474;2023-12-20T06:28:47;22.03;;;3.80;;
13897;SDS011;7019;50.766;4.474;2023-12-20T06:31:14;19.17;;;3.50;;
13897;SDS011;7019;50.766;4.474;2023-12-20T06:33:41;10.20;;;3.80;;
13897;SDS011;7019;50.766;4.474;2023-12-20T06:36:10;11.53;;;3.97;;
13897;SDS011;7019;50.766;4.474;2023-12-20T06:38:38;13.83;;;3.93;;
13897;SDS011;7019;50.766;4.474;2023-12-20T06:41:06;14.57;;;5.23;;
13897;SDS011;7019;50.766;4.474;2023-12-20T06:43:33;12.77;;;3.13;;
13897;SDS011;7019;50.766;4.474;2023-12-20T06:46:00;17.97;;;3.30;;
13897;SDS011;7019;50.766;4.474;2023-12-20T06:48:27;12.33;;;4.50;;
13897;SDS011;7019;50.766;4.474;2023-12-20T06:50:54;13.70;;;3.30;;
13897;SDS011;7019;50.766;4.474;2023-12-20T06:53:21;10.77;;;3.93;;
13897;SDS011;7019;50.766;4.474;2023-12-20T06:55:48;17.50;;;3.33;;
13897;SDS011;7019;50.766;4.474;2023-12-20T06:58:17;14.53;;;3.30;;
13897;SDS011;7019;50.766;4.474;2023-12-20T07:00:44;15.20;;;3.10;;
13897;SDS011;7019;50.766;4.474;2023-12-20T07:03:11;13.90;;;3.00;;
13897;SDS011;7019;50.766;4.474;2023-12-20T07:05:38;10.50;;;2.80;;
13897;SDS011;7019;50.766;4.474;2023-12-20T07:08:06;11.33;;;3.13;;
13897;SDS011;7019;50.766;4.474;2023-12-20T07:10:33;9.00;;;2.90;;
13897;SDS011;7019;50.766;4.474;2023-12-20T07:13:00;14.63;;;3.20;;
13897;SDS011;7019;50.766;4.474;2023-12-20T07:15:28;14.50;;;2.93;;
13897;SDS011;7019;50.766;4.474;2023-12-20T07:17:55;13.23;;;3.03;;
13897;SDS011;7019;50.766;4.474;2023-12-20T07:20:25;13.00;;;3.73;;
13897;SDS011;7019;50.766;4.474;2023-12-20T07:22:52;12.50;;;3.60;;
13897;SDS011;7019;50.766;4.474;2023-12-20T07:25:19;12.27;;;3.60;;
13897;SDS011;7019;50.766;4.474;2023-12-20T07:27:46;13.47;;;3.50;;
13897;SDS011;7019;50.766;4.474;2023-12-20T07:30:13;11.23;;;2.83;;
13897;SDS011;7019;50.766;4.474;2023-12-20T07:32:42;16.37;;;3.80;;
13897;SDS011;7019;50.766;4.474;2023-12-20T07:35:09;17.80;;;4.03;;
13897;SDS011;7019;50.766;4.474;2023-12-20T07:37:36;12.63;;;3.30;;
13897;SDS011;7019;50.766;4.474;2023-12-20T07:40:03;14.03;;;3.73;;
13897;SDS011;7019;50.766;4.474;2023-12-20T07:42:31;15.57;;;4.50;;
13897;SDS011;7019;50.766;4.474;2023-12-20T07:44:58;18.77;;;5.50;;
13897;SDS011;7019;50.766;4.474;2023-12-20T07:47:25;20.20;;;4.07;;
13897;SDS011;7019;50.766;4.474;2023-12-20T07:49:54;21.83;;;4.40;;
13897;SDS011;7019;50.766;4.474;2023-12-20T07:52:21;25.13;;;6.13;;
13897;SDS011;7019;50.766;4.474;2023-12-20T07:54:48;13.60;;;3.83;;
13897;SDS011;7019;50.766;4.474;2023-12-20T07:57:15;17.03;;;4.67;;
13897;SDS011;7019;50.766;4.474;2023-12-20T07:59:42;15.03;;;4.10;;
13897;SDS011;7019;50.766;4.474;2023-12-20T08:02:09;14.30;;;3.60;;
13897;SDS011;7019;50.766;4.474;2023-12-20T08:04:37;13.20;;;3.03;;
13897;SDS011;7019;50.766;4.474;2023-12-20T08:07:05;17.10;;;3.63;;
13897;SDS011;7019;50.766;4.474;2023-12-20T08:09:33;16.73;;;3.20;;
13897;SDS011;7019;50.766;4.474;2023-12-20T08:12:01;15.93;;;3.17;;
13897;SDS011;7019;50.766;4.474;2023-12-20T08:14:29;12.13;;;3.43;;
13897;SDS011;7019;50.766;4.474;2023-12-20T08:16:56;12.87;;;3.90;;
13897;SDS011;7019;50.766;4.474;2023-12-20T08:19:23;12.63;;;3.33;;
13897;SDS011;7019;50.766;4.474;2023-12-20T08:21:50;10.77;;;2.90;;
13897;SDS011;7019;50.766;4.474;2023-12-20T08:24:19;16.53;;;3.87;;
13897;SDS011;7019;50.766;4.474;2023-12-20T08:26:46;10.37;;;2.87;;
13897;SDS011;7019;50.766;4.474;2023-12-20T08:29:13;20.80;;;2.93;;
13897;SDS011;7019;50.766;4.474;2023-12-20T08:31:40;14.27;;;3.23;;
13897;SDS011;7019;50.766;4.474;2023-12-20T08:34:07;13.97;;;2.80;;
13897;SDS011;7019;50.766;4.474;2023-12-20T08:36:36;12.47;;;4.13;;
13897;SDS011;7019;50.766;4.474;2023-12-20T08:39:03;16.70;;;3.20;;
13897;SDS011;7019;50.766;4.474;2023-12-20T08:41:34;14.30;;;2.40;;
13897;SDS011;7019;50.766;4.474;2023-12-20T08:44:01;12.00;;;2.43;;
13897;SDS011;7019;50.766;4.474;2023-12-20T08:46:29;13.30;;;2.90;;
13897;SDS011;7019;50.766;4.474;2023-12-20T08:48:56;11.47;;;2.93;;
13897;SDS011;7019;50.766;4.474;2023-12-20T08:51:23;17.67;;;3.10;;
13897;SDS011;7019;50.766;4.474;2023-12-20T08:53:50;9.63;;;2.60;;
13897;SDS011;7019;50.766;4.474;2023-12-20T08:56:18;9.63;;;2.33;;
13897;SDS011;7019;50.766;4.474;2023-12-20T08:58:46;13.97;;;2.40;;
13897;SDS011;7019;50.766;4.474;2023-12-20T09:01:14;13.33;;;2.90;;
13897;SDS011;7019;50.766;4.474;2023-12-20T09:03:41;14.20;;;3.10;;
13897;SDS011;7019;50.766;4.474;2023-12-20T09:06:08;13.20;;;2.90;;
13897;SDS011;7019;50.766;4.474;2023-12-20T09:08:35;12.40;;;2.47;;
13897;SDS011;7019;50.766;4.474;2023-12-20T09:11:02;15.27;;;2.77;;
13897;SDS011;7019;50.766;4.474;2023-12-20T09:13:29;16.60;;;3.63;;
13897;SDS011;7019;50.766;4.474;2023-12-20T09:15:58;10.57;;;2.60;;
13897;SDS011;7019;50.766;4.474;2023-12-20T09:18:25;14.50;;;3.93;;
13897;SDS011;7019;50.766;4.474;2023-12-20T09:20:52;14.00;;;2.70;;
13897;SDS011;7019;50.766;4.474;2023-12-20T09:23:20;14.60;;;3.40;;
13897;SDS011;7019;50.766;4.474;2023-12-20T09:25:47;9.70;;;2.70;;
13897;SDS011;7019;50.766;4.474;2023-12-20T09:28:14;10.77;;;2.50;;
13897;SDS011;7019;50.766;4.474;2023-12-20T09:30:41;13.10;;;3.20;;
13897;SDS011;7019;50.766;4.474;2023-12-20T09:33:12;12.30;;;2.83;;
13897;SDS011;7019;50.766;4.474;2023-12-20T09:35:39;15.63;;;2.80;;
13897;SDS011;7019;50.766;4.474;2023-12-20T09:38:06;18.27;;;2.70;;
13897;SDS011;7019;50.766;4.474;2023-12-20T09:40:33;11.23;;;2.40;;
13897;SDS011;7019;50.766;4.474;2023-12-20T09:43:03;15.07;;;2.57;;
13897;SDS011;7019;50.766;4.474;2023-12-20T09:45:31;14.07;;;3.07;;
13897;SDS011;7019;50.766;4.474;2023-12-20T09:47:58;12.47;;;3.03;;
13897;SDS011;7019;50.766;4.474;2023-12-20T09:50:27;10.13;;;2.20;;
13897;SDS011;7019;50.766;4.474;2023-12-20T09:52:55;8.37;;;2.47;;
13897;SDS011;7019;50.766;4.474;2023-12-20T09:55:24;13.40;;;2.90;;
13897;SDS011;7019;50.766;4.474;2023-12-20T09:57:53;10.53;;;2.07;;
13897;SDS011;7019;50.766;4.474;2023-12-20T10:00:20;14.10;;;3.80;;
13897;SDS011;7019;50.766;4.474;2023-12-20T10:02:49;13.20;;;2.60;;
13897;SDS011;7019;50.766;4.474;2023-12-20T10:05:26;12.40;;;2.27;;
13897;SDS011;7019;50.766;4.474;2023-12-20T10:07:55;10.50;;;2.03;;
13897;SDS011;7019;50.766;4.474;2023-12-20T10:10:22;11.53;;;2.10;;
13897;SDS011;7019;50.766;4.474;2023-12-20T10:13:01;11.73;;;2.60;;
13897;SDS011;7019;50.766;4.474;2023-12-20T10:15:29;19.17;;;3.07;;
13897;SDS011;7019;50.766;4.474;2023-12-20T10:17:57;8.53;;;1.90;;
13897;SDS011;7019;50.766;4.474;2023-12-20T10:20:24;14.93;;;2.20;;
13897;SDS011;7019;50.766;4.474;2023-12-20T10:22:53;8.93;;;2.50;;
13897;SDS011;7019;50.766;4.474;2023-12-20T10:25:21;6.67;;;1.77;;
13897;SDS011;7019;50.766;4.474;2023-12-20T10:27:49;9.00;;;2.47;;
13897;SDS011;7019;50.766;4.474;2023-12-20T10:30:17;12.33;;;3.87;;
13897;SDS011;7019;50.766;4.474;2023-12-20T10:32:44;10.03;;;2.63;;
13897;SDS011;7019;50.766;4.474;2023-12-20T10:35:12;11.13;;;3.13;;
13897;SDS011;7019;50.766;4.474;2023-12-20T10:37:40;11.63;;;2.20;;
13897;SDS011;7019;50.766;4.474;2023-12-20T10:40:09;9.93;;;1.97;;
13897;SDS011;7019;50.766;4.474;2023-12-20T10:42:38;15.73;;;3.17;;
13897;SDS011;7019;50.766;4.474;2023-12-20T10:45:06;10.63;;;2.20;;
13897;SDS011;7019;50.766;4.474;2023-12-20T10:47:34;11.47;;;2.73;;
13897;SDS011;7019;50.766;4.474;2023-12-20T10:50:04;11.70;;;2.33;;
13897;SDS011;7019;50.766;4.474;2023-12-20T10:52:32;8.47;;;2.27;;
13897;SDS011;7019;50.766;4.474;2023-12-20T10:55:05;11.53;;;2.27;;
13897;SDS011;7019;50.766;4.474;2023-12-20T10:57:36;14.77;;;2.97;;
13897;SDS011;7019;50.766;4.474;2023-12-20T11:00:03;10.50;;;2.50;;
13897;SDS011;7019;50.766;4.474;2023-12-20T11:02:36;10.87;;;2.20;;
13897;SDS011;7019;50.766;4.474;2023-12-20T11:05:07;10.67;;;2.70;;
13897;SDS011;7019;50.766;4.474;2023-12-20T11:07:43;11.10;;;2.90;;
13897;SDS011;7019;50.766;4.474;2023-12-20T11:10:16;7.77;;;2.20;;
13897;SDS011;7019;50.766;4.474;2023-12-20T11:12:48;10.60;;;2.57;;
13897;SDS011;7019;50.766;4.474;2023-12-20T11:15:21;15.43;;;4.23;;
13897;SDS011;7019;50.766;4.474;2023-12-20T11:17:54;9.73;;;2.47;;
13897;SDS011;7019;50.766;4.474;2023-12-20T11:20:22;11.13;;;2.90;;
13897;SDS011;7019;50.766;4.474;2023-12-20T11:23:01;9.50;;;2.60;;
13897;SDS011;7019;50.766;4.474;2023-12-20T11:25:28;7.27;;;2.40;;
13897;SDS011;7019;50.766;4.474;2023-12-20T11:28:09;12.07;;;1.80;;
13897;SDS011;7019;50.766;4.474;2023-12-20T11:30:40;13.23;;;2.30;;
13897;SDS011;7019;50.766;4.474;2023-12-20T11:33:08;7.70;;;1.73;;
13897;SDS011;7019;50.766;4.474;2023-12-20T11:35:35;10.00;;;2.77;;
13897;SDS011;7019;50.766;4.474;2023-12-20T11:38:04;6.80;;;1.70;;
13897;SDS011;7019;50.766;4.474;2023-12-20T11:40:34;13.83;;;2.50;;
13897;SDS011;7019;50.766;4.474;2023-12-20T11:43:02;11.73;;;2.20;;
13897;SDS011;7019;50.766;4.474;2023-12-20T11:45:31;10.23;;;2.50;;
13897;SDS011;7019;50.766;4.474;2023-12-20T11:48:00;11.33;;;2.37;;
13897;SDS011;7019;50.766;4.474;2023-12-20T11:50:28;7.53;;;2.30;;
13897;SDS011;7019;50.766;4.474;2023-12-20T11:52:56;10.30;;;2.70;;
13897;SDS011;7019;50.766;4.474;2023-12-20T11:55:23;11.97;;;2.50;;
13897;SDS011;7019;50.766;4.474;2023-12-20T11:57:51;9.40;;;2.67;;
13897;SDS011;7019;50.766;4.474;2023-12-20T12:00:19;12.43;;;2.60;;
13897;SDS011;7019;50.766;4.474;2023-12-20T12:02:57;11.37;;;2.23;;
13897;SDS011;7019;50.766;4.474;2023-12-20T12:05:26;10.30;;;2.40;;
13897;SDS011;7019;50.766;4.474;2023-12-20T12:07:53;8.87;;;3.97;;
13897;SDS011;7019;50.766;4.474;2023-12-20T12:10:21;7.37;;;2.30;;
13897;SDS011;7019;50.766;4.474;2023-12-20T12:12:48;5.47;;;1.97;;
13897;SDS011;7019;50.766;4.474;2023-12-20T12:15:15;9.40;;;2.37;;
13897;SDS011;7019;50.766;4.474;2023-12-20T12:17:42;10.43;;;3.13;;
13897;SDS011;7019;50.766;4.474;2023-12-20T12:20:11;10.00;;;2.47;;
13897;SDS011;7019;50.766;4.474;2023-12-20T12:22:38;9.17;;;2.50;;
13897;SDS011;7019;50.766;4.474;2023-12-20T12:25:12;9.03;;;2.00;;
13897;SDS011;7019;50.766;4.474;2023-12-20T12:27:40;8.73;;;2.47;;
13897;SDS011;7019;50.766;4.474;2023-12-20T12:30:08;13.83;;;2.30;;
13897;SDS011;7019;50.766;4.474;2023-12-20T12:32:38;11.27;;;2.27;;
13897;SDS011;7019;50.766;4.474;2023-12-20T12:35:06;14.37;;;2.17;;
13897;SDS011;7019;50.766;4.474;2023-12-20T12:37:37;10.30;;;2.40;;
13897;SDS011;7019;50.766;4.474;2023-12-20T12:40:06;11.23;;;2.20;;
13897;SDS011;7019;50.766;4.474;2023-12-20T12:42:36;10.57;;;3.03;;
13897;SDS011;7019;50.766;4.474;2023-12-20T12:45:03;11.93;;;2.90;;
13897;SDS011;7019;50.766;4.474;2023-12-20T12:47:31;10.03;;;2.60;;
13897;SDS011;7019;50.766;4.474;2023-12-20T12:49:58;9.73;;;2.43;;
13897;SDS011;7019;50.766;4.474;2023-12-20T12:52:25;9.03;;;1.87;;
13897;SDS011;7019;50.766;4.474;2023-12-20T12:54:54;10.73;;;1.90;;
13897;SDS011;7019;50.766;4.474;2023-12-20T12:57:21;8.90;;;2.30;;
13897;SDS011;7019;50.766;4.474;2023-12-20T12:59:49;10.43;;;2.17;;
13897;SDS011;7019;50.766;4.474;2023-12-20T13:02:16;14.83;;;1.63;;
13897;SDS011;7019;50.766;4.474;2023-12-20T13:04:43;12.33;;;2.77;;
13897;SDS011;7019;50.766;4.474;2023-12-20T13:07:11;11.57;;;3.13;;
13897;SDS011;7019;50.766;4.474;2023-12-20T13:09:39;10.30;;;3.30;;
13897;SDS011;7019;50.766;4.474;2023-12-20T13:12:08;10.30;;;2.20;;
13897;SDS011;7019;50.766;4.474;2023-12-20T13:14:35;13.27;;;3.30;;
13897;SDS011;7019;50.766;4.474;2023-12-20T13:17:03;9.13;;;2.37;;
13897;SDS011;7019;50.766;4.474;2023-12-20T13:19:31;11.70;;;2.40;;
13897;SDS011;7019;50.766;4.474;2023-12-20T13:21:58;16.23;;;2.90;;
13897;SDS011;7019;50.766;4.474;2023-12-20T13:24:25;15.00;;;3.43;;
13897;SDS011;7019;50.766;4.474;2023-12-20T13:26:52;11.40;;;2.50;;
13897;SDS011;7019;50.766;4.474;2023-12-20T13:29:21;11.10;;;2.23;;
13897;SDS011;7019;50.766;4.474;2023-12-20T13:31:48;11.10;;;2.50;;
13897;SDS011;7019;50.766;4.474;2023-12-20T13:34:16;10.93;;;2.20;;
13897;SDS011;7019;50.766;4.474;2023-12-20T13:36:43;7.63;;;2.77;;
13897;SDS011;7019;50.766;4.474;2023-12-20T13:39:12;10.93;;;2.33;;
13897;SDS011;7019;50.766;4.474;2023-12-20T13:41:40;11.40;;;2.77;;
13897;SDS011;7019;50.766;4.474;2023-12-20T13:44:07;13.10;;;2.67;;
13897;SDS011;7019;50.766;4.474;2023-12-20T13:46:35;7.53;;;2.13;;
13897;SDS011;7019;50.766;4.474;2023-12-20T13:49:02;9.70;;;1.93;;
13897;SDS011;7019;50.766;4.474;2023-12-20T13:51:30;21.33;;;3.20;;
13897;SDS011;7019;50.766;4.474;2023-12-20T13:53:57;15.27;;;2.47;;
13897;SDS011;7019;50.766;4.474;2023-12-20T13:56:25;16.57;;;3.30;;
13897;SDS011;7019;50.766;4.474;2023-12-20T13:58:52;7.23;;;2.47;;
13897;SDS011;7019;50.766;4.474;2023-12-20T14:01:19;11.63;;;2.73;;
13897;SDS011;7019;50.766;4.474;2023-12-20T14:03:47;10.30;;;2.87;;
13897;SDS011;7019;50.766;4.474;2023-12-20T14:06:15;11.70;;;2.90;;
13897;SDS011;7019;50.766;4.474;2023-12-20T14:08:43;5.10;;;2.43;;
13897;SDS011;7019;50.766;4.474;2023-12-20T14:11:10;16.40;;;2.70;;
13897;SDS011;7019;50.766;4.474;2023-12-20T14:13:37;10.03;;;2.60;;
13897;SDS011;7019;50.766;4.474;2023-12-20T14:16:04;16.53;;;3.47;;
13897;SDS011;7019;50.766;4.474;2023-12-20T14:18:32;12.83;;;3.07;;
13897;SDS011;7019;50.766;4.474;2023-12-20T14:21:00;11.53;;;2.50;;
13897;SDS011;7019;50.766;4.474;2023-12-20T14:23:27;15.30;;;3.60;;
13897;SDS011;7019;50.766;4.474;2023-12-20T14:25:54;15.63;;;2.63;;
13897;SDS011;7019;50.766;4.474;2023-12-20T14:28:23;17.90;;;2.73;;
13897;SDS011;7019;50.766;4.474;2023-12-20T14:30:50;16.93;;;3.03;;
13897;SDS011;7019;50.766;4.474;2023-12-20T14:33:18;12.00;;;2.20;;
13897;SDS011;7019;50.766;4.474;2023-12-20T14:35:46;15.40;;;2.73;;
13897;SDS011;7019;50.766;4.474;2023-12-20T14:38:15;8.67;;;2.07;;
13897;SDS011;7019;50.766;4.474;2023-12-20T14:40:42;11.13;;;2.43;;
13897;SDS011;7019;50.766;4.474;2023-12-20T14:43:09;10.20;;;2.37;;
13897;SDS011;7019;50.766;4.474;2023-12-20T14:45:36;8.70;;;1.93;;
13897;SDS011;7019;50.766;4.474;2023-12-20T14:48:04;10.37;;;2.23;;
13897;SDS011;7019;50.766;4.474;2023-12-20T14:50:32;13.27;;;2.40;;
13897;SDS011;7019;50.766;4.474;2023-12-20T14:52:59;10.87;;;2.80;;
13897;SDS011;7019;50.766;4.474;2023-12-20T14:55:28;9.60;;;2.50;;